Time;durP1;ratioP1;P1;durP2;ratioP2;P2;SDS_P1;SDS_P2;PMS_P1;PMS_P2;Temp;Humidity;BMP_temperature;BMP_pressure;BME280_temperature;BME280_humidity;BME280_pressure;Samples;Min_cycle;Max_cycle;Signal;HPM_P1;HPM_P2
2023/01/13 00:01:22;;;;;;;2.55;1.60;;;;;;;;;;5083724;28;20032;-83
2023/01/13 00:03:48;;;;;;;2.70;1.67;;;;;;;;;;5102612;28;20153;-84
2023/01/13 00:06:18;;;;;;;2.03;1.40;;;;;;;;;;5102249;28;20086;-84
2023/01/13 00:08:43;;;;;;;2.17;1.40;;;;;;;;;;5101230;28;20043;-84
2023/01/13 00:11:10;;;;;;;3.55;1.67;;;;;;;;;;5083465;28;20028;-83
2023/01/13 00:13:37;;;;;;;3.03;1.92;;;;;;;;;;5102010;28;20042;-83
2023/01/13 00:16:05;;;;;;;3.10;1.70;;;;;;;;;;5102226;28;20046;-82
2023/01/13 00:18:32;;;;;;;3.08;1.70;;;;;;;;;;5101006;28;20036;-83
2023/01/13 00:21:03;;;;;;;2.35;1.65;;;;;;;;;;5101551;28;20047;-84
2023/01/13 00:23:30;;;;;;;2.85;1.90;;;;;;;;;;5083035;28;20059;-83
2023/01/13 00:25:59;;;;;;;4.93;2.33;;;;;;;;;;5082584;28;20032;-82
2023/01/13 00:28:25;;;;;;;5.13;3.20;;;;;;;;;;5101475;28;20036;-83
2023/01/13 00:30:51;;;;;;;7.75;3.83;;;;;;;;;;5082654;28;20035;-83
2023/01/13 00:33:16;;;;;;;7.53;4.28;;;;;;;;;;5083139;28;20442;-83
2023/01/13 00:35:42;;;;;;;9.10;4.88;;;;;;;;;;5100945;28;20047;-84
2023/01/13 00:38:08;;;;;;;6.93;3.80;;;;;;;;;;5065768;28;20151;-83
2023/01/13 00:40:33;;;;;;;10.50;5.85;;;;;;;;;;5083388;28;20041;-84
2023/01/13 00:45:43;;;;;;;4.03;2.30;;;;;;;;;;5101140;28;20039;-84
2023/01/13 00:48:09;;;;;;;3.10;1.90;;;;;;;;;;5101598;28;20040;-84
2023/01/13 00:50:34;;;;;;;3.10;2.00;;;;;;;;;;5082884;28;20090;-84
2023/01/13 00:53:00;;;;;;;3.72;2.05;;;;;;;;;;5113748;22;20048;-90
2023/01/13 00:55:26;;;;;;;4.88;1.65;;;;;;;;;;5093585;28;20041;-90
2023/01/13 00:57:52;;;;;;;3.10;1.20;;;;;;;;;;5113732;28;20031;-89
2023/01/13 01:00:18;;;;;;;1.95;1.30;;;;;;;;;;5114089;28;20039;-89
2023/01/13 01:02:43;;;;;;;2.05;1.30;;;;;;;;;;5113543;28;20083;-88
2023/01/13 01:05:09;;;;;;;2.85;1.40;;;;;;;;;;5113461;28;20050;-89
2023/01/13 01:07:34;;;;;;;2.35;1.38;;;;;;;;;;5113705;28;20031;-89
2023/01/13 01:10:00;;;;;;;2.03;1.40;;;;;;;;;;5095280;28;20031;-88
2023/01/13 01:12:25;;;;;;;2.63;1.40;;;;;;;;;;5078063;28;20035;-89
2023/01/13 01:14:51;;;;;;;1.98;1.38;;;;;;;;;;5113384;28;20042;-89
2023/01/13 01:17:16;;;;;;;2.42;1.50;;;;;;;;;;5078319;28;20067;-89
2023/01/13 01:19:42;;;;;;;2.38;1.67;;;;;;;;;;5113237;28;20039;-89
2023/01/13 01:22:07;;;;;;;3.10;1.75;;;;;;;;;;5095080;28;20038;-88
2023/01/13 01:24:33;;;;;;;2.67;1.50;;;;;;;;;;5102027;28;20039;-88
2023/01/13 01:26:58;;;;;;;1.73;1.20;;;;;;;;;;5098326;28;20034;-85
2023/01/13 01:29:24;;;;;;;2.45;1.60;;;;;;;;;;5112542;28;20031;-87
2023/01/13 01:31:49;;;;;;;2.60;1.60;;;;;;;;;;5112493;28;20095;-87
2023/01/13 01:34:14;;;;;;;4.53;1.48;;;;;;;;;;5112396;28;20076;-87
2023/01/13 01:36:40;;;;;;;2.47;1.48;;;;;;;;;;5094276;28;20027;-86
2023/01/13 01:39:05;;;;;;;1.83;1.20;;;;;;;;;;5103017;28;20034;-88
2023/01/13 01:41:33;;;;;;;1.75;1.10;;;;;;;;;;5113636;28;20039;-87
2023/01/13 01:44:46;;;;;;;2.35;1.30;;;;;;;;;;5094321;28;20027;-88
2023/01/13 01:47:16;;;;;;;1.90;1.17;;;;;;;;;;5112594;28;20043;-88
2023/01/13 01:49:44;;;;;;;3.05;1.40;;;;;;;;;;5092779;28;20054;-88
2023/01/13 01:52:21;;;;;;;3.05;1.35;;;;;;;;;;5092339;28;20469;-91
2023/01/13 01:55:09;;;;;;;2.03;1.30;;;;;;;;;;5074159;28;20047;-90
2023/01/13 01:57:41;;;;;;;2.60;1.42;;;;;;;;;;5092388;28;20492;-89
2023/01/13 02:00:07;;;;;;;1.88;1.15;;;;;;;;;;5092398;28;20032;-88
2023/01/13 02:02:42;;;;;;;1.80;1.23;;;;;;;;;;5092266;28;20067;-89
2023/01/13 02:05:08;;;;;;;1.85;1.30;;;;;;;;;;5074238;28;20032;-89
2023/01/13 02:07:37;;;;;;;2.10;1.40;;;;;;;;;;5096057;28;20133;-89
2023/01/13 02:10:07;;;;;;;1.73;1.05;;;;;;;;;;5077713;28;20039;-89
2023/01/13 02:12:33;;;;;;;2.15;1.30;;;;;;;;;;5077960;28;20028;-88
2023/01/13 02:15:05;;;;;;;1.75;1.20;;;;;;;;;;5077414;28;20024;-88
2023/01/13 02:17:52;;;;;;;2.65;1.50;;;;;;;;;;5096345;28;20028;-88
2023/01/13 02:20:41;;;;;;;2.83;1.50;;;;;;;;;;5096199;28;20039;-91
2023/01/13 02:26:24;;;;;;;3.15;1.67;;;;;;;;;;5077369;28;20032;-88
2023/01/13 02:31:48;;;;;;;2.60;1.30;;;;;;;;;;5095711;28;20119;-88
2023/01/13 02:34:52;;;;;;;2.03;1.20;;;;;;;;;;5077196;28;20020;-88
2023/01/13 02:37:22;;;;;;;;;;;;;;;;;;5082707;28;20040;-83
2023/01/13 02:40:01;;;;;;;3.03;1.20;;;;;;;;;;5094989;28;19919;-87
2023/01/13 02:45:34;;;;;;;1.90;1.20;;;;;;;;;;5095652;28;20043;-88
2023/01/13 02:48:03;;;;;;;3.28;1.25;;;;;;;;;;5095600;28;20036;-88
2023/01/13 02:50:38;;;;;;;2.42;1.20;;;;;;;;;;5095751;28;20044;-89
2023/01/13 02:53:40;;;;;;;2.58;1.40;;;;;;;;;;5095507;28;20399;-89
2023/01/13 02:56:07;;;;;;;2.80;1.30;;;;;;;;;;5090095;28;20044;-89
2023/01/13 02:58:35;;;;;;;2.40;1.30;;;;;;;;;;5077554;28;20043;-88
2023/01/13 03:01:00;;;;;;;3.70;1.60;;;;;;;;;;5095244;28;20036;-88
2023/01/13 03:03:26;;;;;;;2.25;1.48;;;;;;;;;;5095419;28;20589;-89
2023/01/13 03:06:10;;;;;;;3.92;1.63;;;;;;;;;;5060147;28;20503;-88
2023/01/13 03:08:49;;;;;;;;;;;;;;;;;;5095294;28;20488;-85
2023/01/13 03:11:19;;;;;;;2.55;1.25;;;;;;;;;;5095283;28;19912;-89
2023/01/13 03:13:50;;;;;;;2.00;1.20;;;;;;;;;;5077095;28;20039;-89
2023/01/13 03:16:28;;;;;;;1.92;1.20;;;;;;;;;;5094999;28;20046;-89
2023/01/13 03:18:57;;;;;;;2.38;0.98;;;;;;;;;;5075987;28;20506;-89
2023/01/13 03:21:37;;;;;;;3.15;1.20;;;;;;;;;;5076701;28;20020;-89
2023/01/13 03:24:44;;;;;;;3.03;1.17;;;;;;;;;;5094495;28;20036;-89
2023/01/13 03:27:32;;;;;;;1.90;1.30;;;;;;;;;;5076853;28;20052;-87
2023/01/13 03:30:07;;;;;;;1.85;1.20;;;;;;;;;;5076311;28;20036;-88
2023/01/13 03:32:37;;;;;;;1.83;1.20;;;;;;;;;;5094647;28;20042;-88
2023/01/13 03:35:12;;;;;;;2.10;1.35;;;;;;;;;;5094398;28;20055;-88
2023/01/13 03:37:42;;;;;;;2.08;1.23;;;;;;;;;;5093826;28;20032;-87
2023/01/13 03:40:19;;;;;;;1.90;1.00;;;;;;;;;;5075690;28;20032;-88
2023/01/13 03:45:38;;;;;;;1.98;1.23;;;;;;;;;;5085782;28;20131;-89
2023/01/13 03:48:12;;;;;;;3.33;1.25;;;;;;;;;;5094638;28;20024;-90
2023/01/13 03:50:49;;;;;;;3.17;1.33;;;;;;;;;;5094663;28;20024;-89
2023/01/13 03:53:21;;;;;;;2.60;1.25;;;;;;;;;;5094289;28;20028;-89
2023/01/13 03:55:52;;;;;;;2.17;1.30;;;;;;;;;;5094445;28;20027;-88
2023/01/13 03:58:40;;;;;;;2.42;1.38;;;;;;;;;;5094305;28;20050;-89
2023/01/13 04:01:14;;;;;;;2.33;1.20;;;;;;;;;;5076078;28;20330;-89
2023/01/13 04:03:48;;;;;;;2.65;1.30;;;;;;;;;;5076295;28;20039;-87
2023/01/13 04:06:39;;;;;;;2.17;1.27;;;;;;;;;;5094260;28;20476;-88
2023/01/13 04:09:25;;;;;;;2.47;1.30;;;;;;;;;;5059646;28;20043;-89
2023/01/13 04:11:56;;;;;;;1.90;1.27;;;;;;;;;;5076003;28;20078;-89
2023/01/13 04:14:24;;;;;;;1.77;1.20;;;;;;;;;;5076057;28;20400;-88
2023/01/13 04:16:54;;;;;;;2.28;1.38;;;;;;;;;;5094075;28;20039;-89
2023/01/13 04:19:20;;;;;;;1.75;1.10;;;;;;;;;;5093944;28;20028;-89
2023/01/13 04:21:45;;;;;;;1.92;1.20;;;;;;;;;;5075720;28;20032;-88
2023/01/13 04:24:11;;;;;;;2.15;1.20;;;;;;;;;;5093600;28;20085;-88
2023/01/13 04:26:36;;;;;;;1.63;1.15;;;;;;;;;;5093820;28;20158;-89
2023/01/13 04:29:02;;;;;;;1.63;1.20;;;;;;;;;;5093631;28;20028;-89
2023/01/13 04:31:27;;;;;;;2.17;1.10;;;;;;;;;;5093329;28;20023;-89
2023/01/13 04:33:53;;;;;;;1.65;1.00;;;;;;;;;;5093205;28;20047;-88
2023/01/13 04:36:18;;;;;;;2.08;1.15;;;;;;;;;;5058473;28;20035;-88
2023/01/13 04:38:44;;;;;;;2.55;1.20;;;;;;;;;;5058014;28;20127;-88
2023/01/13 04:41:09;;;;;;;3.15;1.17;;;;;;;;;;5092866;28;20111;-87
2023/01/13 04:43:35;;;;;;;1.20;0.95;;;;;;;;;;5092856;28;20055;-87
2023/01/13 04:46:01;;;;;;;1.58;1.17;;;;;;;;;;5096062;28;20028;-88
2023/01/13 04:48:26;;;;;;;1.73;1.20;;;;;;;;;;5082202;28;20043;-91
2023/01/13 04:50:51;;;;;;;1.83;1.10;;;;;;;;;;5075444;28;20032;-89
2023/01/13 04:53:17;;;;;;;1.77;1.10;;;;;;;;;;5074914;28;20400;-88
2023/01/13 04:55:43;;;;;;;1.48;1.00;;;;;;;;;;5075057;28;20035;-89
2023/01/13 04:58:09;;;;;;;2.35;0.82;;;;;;;;;;5075081;28;20062;-89
2023/01/13 05:00:35;;;;;;;1.52;0.90;;;;;;;;;;5103456;28;20024;-89
2023/01/13 05:03:01;;;;;;;1.45;0.90;;;;;;;;;;5075373;28;20044;-87
2023/01/13 05:05:28;;;;;;;1.35;1.00;;;;;;;;;;5092657;28;20032;-87
2023/01/13 05:07:54;;;;;;;2.08;1.20;;;;;;;;;;5074738;28;20039;-87
2023/01/13 05:10:19;;;;;;;2.50;1.20;;;;;;;;;;5092595;28;20028;-85
2023/01/13 05:18:14;;;;;;;1.80;1.30;;;;;;;;;;5074044;28;20031;-87
2023/01/13 05:20:39;;;;;;;4.28;1.75;;;;;;;;;;5088164;28;20462;-89
2023/01/13 05:25:49;;;;;;;2.22;1.50;;;;;;;;;;5106235;28;20053;-88
2023/01/13 05:28:15;;;;;;;4.03;2.75;;;;;;;;;;5113057;28;20547;-89
2023/01/13 05:30:44;;;;;;;1.98;1.20;;;;;;;;;;5113100;28;20032;-88
2023/01/13 05:33:12;;;;;;;5.97;1.67;;;;;;;;;;5112896;28;20078;-86
2023/01/13 05:35:39;;;;;;;4.63;1.75;;;;;;;;;;5094241;28;20039;-88
2023/01/13 05:38:05;;;;;;;2.83;1.25;;;;;;;;;;5112487;28;20036;-89
2023/01/13 05:43:19;;;;;;;2.67;1.63;;;;;;;;;;5116597;28;20035;-87
2023/01/13 05:45:48;;;;;;;2.85;1.67;;;;;;;;;;5081157;28;20400;-89
2023/01/13 05:48:16;;;;;;;2.83;1.65;;;;;;;;;;5082271;28;20024;-88
2023/01/13 05:50:41;;;;;;;1.80;1.30;;;;;;;;;;5126214;28;20035;-90
2023/01/13 05:53:07;;;;;;;2.53;1.50;;;;;;;;;;5117036;28;20599;-89
2023/01/13 05:55:32;;;;;;;3.00;1.50;;;;;;;;;;5116989;28;20043;-88
2023/01/13 05:57:58;;;;;;;3.67;1.60;;;;;;;;;;5117033;28;20106;-89
2023/01/13 06:00:23;;;;;;;3.90;1.63;;;;;;;;;;5116893;28;20488;-88
2023/01/13 06:02:49;;;;;;;2.45;1.60;;;;;;;;;;5117047;28;20036;-88
2023/01/13 06:05:14;;;;;;;2.70;1.58;;;;;;;;;;5116628;28;20031;-89
2023/01/13 06:07:40;;;;;;;4.32;1.60;;;;;;;;;;5098703;28;20035;-88
2023/01/13 06:10:06;;;;;;;4.15;1.90;;;;;;;;;;5116776;28;20060;-88
2023/01/13 06:12:32;;;;;;;3.60;1.70;;;;;;;;;;5116718;28;20031;-89
2023/01/13 06:14:57;;;;;;;3.85;1.60;;;;;;;;;;5081086;28;20399;-89
2023/01/13 06:17:23;;;;;;;4.32;2.08;;;;;;;;;;5098320;28;20372;-89
2023/01/13 06:19:49;;;;;;;4.13;1.67;;;;;;;;;;5116170;28;20028;-89
2023/01/13 06:22:17;;;;;;;3.28;1.50;;;;;;;;;;5116121;28;20031;-89
2023/01/13 06:24:45;;;;;;;2.83;1.65;;;;;;;;;;5097578;28;20036;-87
2023/01/13 06:27:11;;;;;;;2.63;1.60;;;;;;;;;;5115944;28;20042;-88
2023/01/13 06:29:37;;;;;;;3.47;1.88;;;;;;;;;;5097657;28;20027;-90
2023/01/13 06:32:06;;;;;;;3.13;1.75;;;;;;;;;;5097521;28;20123;-89
2023/01/13 06:34:34;;;;;;;8.68;3.65;;;;;;;;;;5097583;28;20067;-88
2023/01/13 06:37:01;;;;;;;3.10;1.75;;;;;;;;;;5127861;28;20040;-89
2023/01/13 06:39:29;;;;;;;4.07;1.60;;;;;;;;;;5116033;28;20089;-88
2023/01/13 06:44:40;;;;;;;1.67;1.13;;;;;;;;;;5116008;28;20131;-85
2023/01/13 06:47:06;;;;;;;3.10;1.60;;;;;;;;;;5096933;28;20110;-87
2023/01/13 06:49:31;;;;;;;2.28;1.40;;;;;;;;;;5100021;28;20400;-86
2023/01/13 06:51:57;;;;;;;2.15;1.27;;;;;;;;;;5103757;28;20525;-87
2023/01/13 06:54:22;;;;;;;3.38;1.38;;;;;;;;;;5110810;22;20043;-84
2023/01/13 06:56:48;;;;;;;2.33;1.20;;;;;;;;;;5124697;28;20039;-84
2023/01/13 06:59:13;;;;;;;2.92;1.30;;;;;;;;;;5124380;28;20506;-85
2023/01/13 07:01:39;;;;;;;1.90;1.48;;;;;;;;;;5105452;28;20085;-84
2023/01/13 07:04:04;;;;;;;2.30;1.30;;;;;;;;;;5123463;28;20050;-83
2023/01/13 07:06:30;;;;;;;1.75;1.30;;;;;;;;;;5124820;28;20035;-83
2023/01/13 07:08:55;;;;;;;2.13;1.30;;;;;;;;;;5125362;28;20059;-83
2023/01/13 07:11:21;;;;;;;2.33;1.30;;;;;;;;;;5106916;28;20437;-82
2023/01/13 07:16:30;;;;;;;;;;;;;;;;;;5125581;28;20403;-80
2023/01/13 07:18:55;;;;;;;2.42;1.40;;;;;;;;;;5125385;28;19912;-84
2023/01/13 07:21:21;;;;;;;2.90;1.70;;;;;;;;;;5119767;28;20039;-83
2023/01/13 07:23:46;;;;;;;3.38;1.50;;;;;;;;;;5102299;28;20103;-82
2023/01/13 07:26:14;;;;;;;1.90;1.10;;;;;;;;;;5083671;28;20061;-84
2023/01/13 07:28:40;;;;;;;1.95;1.33;;;;;;;;;;5083959;28;20072;-83
2023/01/13 07:31:15;;;;;;;2.47;1.30;;;;;;;;;;5084797;28;20036;-83
2023/01/13 07:33:41;;;;;;;2.35;1.40;;;;;;;;;;5086484;28;20400;-83
2023/01/13 07:36:08;;;;;;;2.40;1.30;;;;;;;;;;5099832;28;20036;-84
2023/01/13 07:38:33;;;;;;;1.88;1.20;;;;;;;;;;5098617;28;20036;-85
2023/01/13 07:43:30;;;;;;;2.47;1.50;;;;;;;;;;5097416;28;20055;-84
2023/01/13 07:43:49;;;;;;;2.72;1.52;;;;;;;;;;5079548;28;20024;-85
2023/01/13 07:46:14;;;;;;;3.17;1.52;;;;;;;;;;5099587;28;20045;-86
2023/01/13 07:48:40;;;;;;;2.42;1.45;;;;;;;;;;5086153;28;20434;-85
2023/01/13 07:51:08;;;;;;;2.15;1.30;;;;;;;;;;5111316;28;20049;-84
2023/01/13 07:53:34;;;;;;;2.72;1.30;;;;;;;;;;5110213;28;20032;-82
2023/01/13 07:56:01;;;;;;;2.50;1.35;;;;;;;;;;5111926;28;20127;-84
2023/01/13 07:58:27;;;;;;;2.38;1.30;;;;;;;;;;5112992;28;20031;-85
2023/01/13 08:00:54;;;;;;;2.35;1.30;;;;;;;;;;5112768;28;20028;-83
2023/01/13 08:03:20;;;;;;;2.65;1.30;;;;;;;;;;5126134;28;20038;-82
2023/01/13 08:05:46;;;;;;;2.75;1.38;;;;;;;;;;5105863;28;20039;-83
2023/01/13 08:08:11;;;;;;;3.22;1.50;;;;;;;;;;5123726;28;20038;-83
2023/01/13 08:10:37;;;;;;;2.38;1.40;;;;;;;;;;5105934;28;20031;-84
2023/01/13 08:13:18;;;;;;;2.28;1.40;;;;;;;;;;5123512;28;20099;-84
2023/01/13 08:15:49;;;;;;;2.05;1.40;;;;;;;;;;5104288;28;20032;-82
2023/01/13 08:18:16;;;;;;;3.42;1.70;;;;;;;;;;5123393;28;20415;-84
2023/01/13 08:20:42;;;;;;;2.70;1.40;;;;;;;;;;5105477;28;20032;-84
2023/01/13 08:23:08;;;;;;;2.72;1.23;;;;;;;;;;5104506;28;20031;-84
2023/01/13 08:25:33;;;;;;;1.63;1.17;;;;;;;;;;5104437;28;20464;-84
2023/01/13 08:27:59;;;;;;;2.72;1.40;;;;;;;;;;5123114;28;20027;-86
2023/01/13 08:30:26;;;;;;;2.47;1.23;;;;;;;;;;5118530;28;20129;-84
2023/01/13 08:32:51;;;;;;;5.50;1.50;;;;;;;;;;5118836;28;20114;-85
2023/01/13 08:35:17;;;;;;;3.45;1.30;;;;;;;;;;5114902;28;20066;-83
2023/01/13 08:37:44;;;;;;;3.17;1.40;;;;;;;;;;5094836;28;20095;-84
2023/01/13 08:40:11;;;;;;;1.95;1.30;;;;;;;;;;5115252;28;20125;-85
2023/01/13 08:42:37;;;;;;;2.85;2.00;;;;;;;;;;5088399;28;20052;-83
2023/01/13 08:45:04;;;;;;;3.65;1.20;;;;;;;;;;5101523;28;20028;-84
2023/01/13 08:47:30;;;;;;;2.20;1.20;;;;;;;;;;5080906;28;20645;-89
2023/01/13 08:49:55;;;;;;;2.92;1.50;;;;;;;;;;5079611;28;20058;-86
2023/01/13 08:52:21;;;;;;;1.58;1.10;;;;;;;;;;5099880;28;20118;-86
2023/01/13 08:54:46;;;;;;;2.67;1.30;;;;;;;;;;5100274;28;20036;-83
2023/01/13 08:57:14;;;;;;;2.95;1.75;;;;;;;;;;5083579;28;20028;-83
2023/01/13 08:59:42;;;;;;;2.35;1.52;;;;;;;;;;5105282;28;20039;-83
2023/01/13 09:02:16;;;;;;;2.60;1.50;;;;;;;;;;5112048;28;20039;-83
2023/01/13 09:04:43;;;;;;;2.95;1.60;;;;;;;;;;5120270;28;20027;-84
2023/01/13 09:07:09;;;;;;;1.70;1.20;;;;;;;;;;5083091;28;20032;-85
2023/01/13 09:09:35;;;;;;;1.88;1.13;;;;;;;;;;5102954;28;20123;-85
2023/01/13 09:14:45;;;;;;;1.27;1.00;;;;;;;;;;5101106;28;20130;-83
2023/01/13 09:17:10;;;;;;;3.53;1.20;;;;;;;;;;5099851;28;20113;-84
2023/01/13 09:19:36;;;;;;;1.80;1.10;;;;;;;;;;5101021;28;20028;-84
2023/01/13 09:22:02;;;;;;;2.28;1.10;;;;;;;;;;5101275;28;20040;-85
2023/01/13 09:24:28;;;;;;;2.03;1.13;;;;;;;;;;5083447;28;20031;-84
2023/01/13 09:26:53;;;;;;;1.70;1.05;;;;;;;;;;5081376;28;20032;-83
2023/01/13 09:29:19;;;;;;;2.45;1.00;;;;;;;;;;5081677;28;20036;-85
2023/01/13 09:31:44;;;;;;;1.48;1.10;;;;;;;;;;5100100;28;20035;-82
2023/01/13 09:36:58;;;;;;;2.30;1.30;;;;;;;;;;5100085;28;20024;-83
2023/01/13 09:39:24;;;;;;;2.00;1.40;;;;;;;;;;5065222;28;20039;-84
2023/01/13 09:44:56;;;;;;;2.10;1.30;;;;;;;;;;5099174;28;20032;-83
2023/01/13 09:47:24;;;;;;;;;;;;;;;;;;5064193;28;20083;-82
2023/01/13 09:49:50;;;;;;;4.93;1.98;;;;;;;;;;5099009;28;19954;-85
2023/01/13 09:52:20;;;;;;;2.67;1.70;;;;;;;;;;5080908;28;20032;-84
2023/01/13 09:54:52;;;;;;;3.95;2.40;;;;;;;;;;5099435;28;20039;-82
2023/01/13 09:57:19;;;;;;;4.70;1.70;;;;;;;;;;5101997;28;20042;-84
2023/01/13 09:59:45;;;;;;;2.97;1.90;;;;;;;;;;5079230;28;20040;-84
2023/01/13 10:02:26;;;;;;;2.53;1.40;;;;;;;;;;5101313;28;20077;-84
2023/01/13 10:05:13;;;;;;;2.33;1.40;;;;;;;;;;5064668;28;20036;-83
2023/01/13 10:07:57;;;;;;;2.22;1.52;;;;;;;;;;5079831;28;20522;-83
2023/01/13 10:10:36;;;;;;;1.48;1.13;;;;;;;;;;5080817;28;20031;-84
2023/01/13 10:13:13;;;;;;;1.83;1.25;;;;;;;;;;5097669;28;20039;-84
2023/01/13 10:15:50;;;;;;;1.85;1.20;;;;;;;;;;5098625;28;20036;-83
2023/01/13 10:18:48;;;;;;;2.40;1.50;;;;;;;;;;5098055;28;20404;-84
2023/01/13 10:21:25;;;;;;;2.50;1.50;;;;;;;;;;5080167;28;20036;-84
2023/01/13 10:24:06;;;;;;;1.95;1.10;;;;;;;;;;5098103;28;20036;-84
2023/01/13 10:26:47;;;;;;;2.22;1.20;;;;;;;;;;5098555;28;20043;-84
2023/01/13 10:29:26;;;;;;;1.73;1.20;;;;;;;;;;5101446;28;20074;-83
2023/01/13 10:31:54;;;;;;;2.30;1.52;;;;;;;;;;5101285;28;20473;-84
2023/01/13 10:34:21;;;;;;;2.17;1.38;;;;;;;;;;5082594;28;20438;-83
2023/01/13 10:37:15;;;;;;;3.83;1.40;;;;;;;;;;5082481;28;20113;-84
2023/01/13 10:39:43;;;;;;;2.40;1.45;;;;;;;;;;5100598;28;20040;-82
2023/01/13 10:42:17;;;;;;;3.08;1.92;;;;;;;;;;5100556;28;20055;-84
2023/01/13 10:45:02;;;;;;;2.97;1.83;;;;;;;;;;5100314;28;20043;-83
2023/01/13 10:47:29;;;;;;;2.95;1.65;;;;;;;;;;5101059;28;20058;-83
2023/01/13 10:50:07;;;;;;;2.95;1.50;;;;;;;;;;5101008;28;20044;-82
2023/01/13 10:52:36;;;;;;;3.42;2.08;;;;;;;;;;5082734;28;20036;-84
2023/01/13 10:55:21;;;;;;;3.35;1.98;;;;;;;;;;5100669;28;20177;-83
2023/01/13 10:57:46;;;;;;;2.22;1.63;;;;;;;;;;5081318;28;20068;-83
2023/01/13 11:00:29;;;;;;;2.90;1.73;;;;;;;;;;5099922;28;20020;-82
2023/01/13 11:03:26;;;;;;;2.50;1.50;;;;;;;;;;5099281;28;20035;-82
2023/01/13 11:05:57;;;;;;;4.95;1.45;;;;;;;;;;5082625;28;20071;-82
2023/01/13 11:08:29;;;;;;;3.05;1.50;;;;;;;;;;5100650;28;20028;-85
2023/01/13 11:10:57;;;;;;;1.65;1.10;;;;;;;;;;5082388;28;20040;-81
2023/01/13 11:14:31;;;;;;;2.40;1.17;;;;;;;;;;5100097;28;20059;-83
2023/01/13 11:16:24;;;;;;;2.30;1.00;;;;;;;;;;5098158;28;20036;-82
2023/01/13 11:19:10;;;;;;;4.28;1.25;;;;;;;;;;5100157;28;20533;-84
2023/01/13 11:22:06;;;;;;;1.73;1.20;;;;;;;;;;5101777;28;20455;-84
2023/01/13 11:24:38;;;;;;;3.38;1.20;;;;;;;;;;5082974;28;20480;-84
2023/01/13 11:27:22;;;;;;;1.70;0.90;;;;;;;;;;5101059;28;20028;-84
2023/01/13 11:30:00;;;;;;;1.52;1.05;;;;;;;;;;5102523;28;20499;-83
2023/01/13 11:32:32;;;;;;;1.90;1.00;;;;;;;;;;5102677;28;20043;-84
2023/01/13 11:35:08;;;;;;;1.67;1.27;;;;;;;;;;5067636;28;20062;-83
2023/01/13 11:37:40;;;;;;;1.58;0.85;;;;;;;;;;5095298;28;20035;-84
2023/01/13 11:40:35;;;;;;;3.10;1.10;;;;;;;;;;5113942;28;20028;-84
2023/01/13 11:43:09;;;;;;;2.88;1.55;;;;;;;;;;5117437;28;20042;-84
2023/01/13 11:45:45;;;;;;;2.22;1.45;;;;;;;;;;5115860;28;20040;-85
2023/01/13 11:48:14;;;;;;;1.58;1.20;;;;;;;;;;5111996;28;20032;-85
2023/01/13 11:50:53;;;;;;;4.68;1.90;;;;;;;;;;5076503;28;20020;-86
2023/01/13 11:53:28;;;;;;;1.48;1.10;;;;;;;;;;5112100;28;20119;-85
2023/01/13 11:55:53;;;;;;;3.53;1.60;;;;;;;;;;5090325;28;20035;-85
2023/01/13 11:59:00;;;;;;;3.25;1.70;;;;;;;;;;5093489;28;20111;-85
2023/01/13 12:01:38;;;;;;;4.40;2.17;;;;;;;;;;5083176;28;20058;-84
2023/01/13 12:04:24;;;;;;;2.10;1.40;;;;;;;;;;5105701;28;20115;-84
2023/01/13 12:07:16;;;;;;;2.13;1.40;;;;;;;;;;5107163;28;20484;-83
2023/01/13 12:10:22;;;;;;;1.92;1.27;;;;;;;;;;5106901;28;20044;-83
2023/01/13 12:13:26;;;;;;;2.15;1.20;;;;;;;;;;5105004;28;20073;-84
2023/01/13 12:16:22;;;;;;;5.32;1.48;;;;;;;;;;5106484;28;20032;-87
2023/01/13 12:18:54;;;;;;;4.15;1.65;;;;;;;;;;5086034;28;20404;-84
2023/01/13 12:21:31;;;;;;;2.72;1.50;;;;;;;;;;5098897;28;20046;-80
2023/01/13 12:24:34;;;;;;;4.60;1.75;;;;;;;;;;5078009;28;20500;-83
2023/01/13 12:27:11;;;;;;;1.63;1.10;;;;;;;;;;5096875;28;20036;-82
2023/01/13 12:29:37;;;;;;;4.10;2.60;;;;;;;;;;5096551;28;20403;-82
2023/01/13 12:32:15;;;;;;;3.45;2.00;;;;;;;;;;5078476;28;20039;-82
2023/01/13 12:35:05;;;;;;;2.42;1.35;;;;;;;;;;5077249;28;20036;-80
2023/01/13 12:37:33;;;;;;;1.70;1.17;;;;;;;;;;5095791;28;20082;-83
2023/01/13 12:40:01;;;;;;;2.97;1.85;;;;;;;;;;5095916;28;20032;-83
2023/01/13 12:45:41;;;;;;;4.10;1.25;;;;;;;;;;5077093;28;20381;-82
2023/01/13 12:48:55;;;;;;;3.45;1.50;;;;;;;;;;5094797;28;20047;-83
2023/01/13 12:51:21;;;;;;;2.97;1.50;;;;;;;;;;5064112;28;20068;-82
2023/01/13 12:53:46;;;;;;;2.00;1.30;;;;;;;;;;5076265;28;20450;-82
2023/01/13 12:56:29;;;;;;;6.88;1.58;;;;;;;;;;5094518;28;20055;-80
2023/01/13 12:59:17;;;;;;;3.08;1.38;;;;;;;;;;5094951;28;20035;-83
2023/01/13 13:01:45;;;;;;;2.90;1.30;;;;;;;;;;5076278;28;20032;-82
2023/01/13 13:04:19;;;;;;;4.97;1.60;;;;;;;;;;5094194;28;20031;-82
2023/01/13 13:06:55;;;;;;;3.65;1.75;;;;;;;;;;5076754;28;20042;-82
2023/01/13 13:09:35;;;;;;;2.15;1.20;;;;;;;;;;5094829;28;20024;-82
2023/01/13 13:15:41;;;;;;;3.00;1.20;;;;;;;;;;5094408;28;20119;-82
2023/01/13 13:18:15;;;;;;;2.50;1.20;;;;;;;;;;5126649;22;20043;-87
2023/01/13 13:20:53;;;;;;;2.90;1.17;;;;;;;;;;5115263;28;20031;-86
2023/01/13 13:23:28;;;;;;;3.13;1.80;;;;;;;;;;5096504;28;20529;-86
2023/01/13 13:26:02;;;;;;;2.28;1.40;;;;;;;;;;5113829;28;20495;-87
2023/01/13 13:28:35;;;;;;;1.67;1.30;;;;;;;;;;5113846;28;20032;-87
2023/01/13 13:31:45;;;;;;;6.60;3.45;;;;;;;;;;5113506;28;20051;-85
2023/01/13 13:34:29;;;;;;;3.78;2.40;;;;;;;;;;5092447;28;20044;-86
2023/01/13 13:37:13;;;;;;;;;;;;;;;;;;5095770;28;20028;-82
2023/01/13 13:48:29;;;;;;;3.13;1.45;;;;;;;;;;5095674;28;20046;-85
2023/01/13 13:51:00;;;;;;;2.58;1.60;;;;;;;;;;5095201;28;20058;-87
2023/01/13 13:53:31;;;;;;;3.17;1.40;;;;;;;;;;5113173;28;20051;-85
2023/01/13 13:55:58;;;;;;;4.25;1.85;;;;;;;;;;5094008;28;20446;-87
2023/01/13 13:58:26;;;;;;;3.05;1.50;;;;;;;;;;5095615;28;20023;-87
2023/01/13 14:00:53;;;;;;;2.33;1.27;;;;;;;;;;5112026;28;20036;-87
2023/01/13 14:03:30;;;;;;;2.63;0.70;;;;;;;;;;5115176;28;20419;-87
2023/01/13 14:06:05;;;;;;;1.10;0.70;;;;;;;;;;5106394;28;20020;-84
2023/01/13 14:08:37;;;;;;;0.63;0.50;;;;;;;;;;5108793;28;20088;-85
2023/01/13 14:11:26;;;;;;;2.25;0.60;;;;;;;;;;5118150;28;20734;-87
2023/01/13 14:14:13;;;;;;;2.33;0.60;;;;;;;;;;5117619;28;20031;-84
2023/01/13 14:16:39;;;;;;;1.67;0.65;;;;;;;;;;5099829;28;20031;-86
2023/01/13 14:19:20;;;;;;;3.40;1.00;;;;;;;;;;5099566;28;20508;-86
2023/01/13 14:21:47;;;;;;;1.00;0.70;;;;;;;;;;5118285;28;20161;-87
2023/01/13 14:24:15;;;;;;;3.13;1.25;;;;;;;;;;5117533;28;20039;-86
2023/01/13 14:26:41;;;;;;;3.60;1.20;;;;;;;;;;5117952;28;20047;-84
2023/01/13 14:29:15;;;;;;;0.60;0.50;;;;;;;;;;5098743;28;20035;-86
2023/01/13 14:31:42;;;;;;;3.28;1.52;;;;;;;;;;5117184;28;20122;-85
2023/01/13 14:34:11;;;;;;;7.13;0.77;;;;;;;;;;5097786;28;20399;-86
2023/01/13 14:36:37;;;;;;;1.63;0.50;;;;;;;;;;5116818;28;20055;-87
2023/01/13 14:39:03;;;;;;;2.10;0.80;;;;;;;;;;5083318;28;20069;-86
2023/01/13 14:41:34;;;;;;;1.70;1.15;;;;;;;;;;5078406;28;20043;-85
2023/01/13 14:44:06;;;;;;;2.45;1.40;;;;;;;;;;5081068;28;20038;-83
2023/01/13 14:46:40;;;;;;;0.77;0.50;;;;;;;;;;5081742;28;20043;-83
2023/01/13 14:49:14;;;;;;;;;;;;;;;;;;5101685;28;20036;-83
2023/01/13 14:51:40;;;;;;;2.13;0.93;;;;;;;;;;5100661;28;19912;-84
2023/01/13 14:54:40;;;;;;;0.60;0.60;;;;;;;;;;5082284;28;20039;-86
2023/01/13 14:57:30;;;;;;;0.90;0.60;;;;;;;;;;5099692;28;20036;-84
2023/01/13 15:00:20;;;;;;;0.70;0.70;;;;;;;;;;5083705;28;20400;-84
2023/01/13 15:02:47;;;;;;;0.90;0.63;;;;;;;;;;5102907;28;20708;-85
2023/01/13 15:05:18;;;;;;;0.82;0.70;;;;;;;;;;5104561;28;20043;-87
2023/01/13 15:08:05;;;;;;;2.90;1.50;;;;;;;;;;5104975;28;20036;-86
2023/01/13 15:10:37;;;;;;;0.70;0.60;;;;;;;;;;5105406;28;20073;-84
2023/01/13 15:13:04;;;;;;;0.70;0.60;;;;;;;;;;5094811;28;20145;-84
2023/01/13 15:15:35;;;;;;;0.90;0.60;;;;;;;;;;5076826;28;20036;-85
2023/01/13 15:18:09;;;;;;;2.03;0.70;;;;;;;;;;5094558;28;20407;-86
2023/01/13 15:20:34;;;;;;;0.98;0.50;;;;;;;;;;5091530;28;20112;-87
2023/01/13 15:23:00;;;;;;;0.77;0.70;;;;;;;;;;5100102;28;20071;-87
2023/01/13 15:25:31;;;;;;;0.70;0.50;;;;;;;;;;5100432;28;20028;-86
2023/01/13 15:27:57;;;;;;;0.52;0.40;;;;;;;;;;5081676;28;20093;-86
2023/01/13 15:30:24;;;;;;;0.55;0.40;;;;;;;;;;5082886;28;20028;-86
2023/01/13 15:32:54;;;;;;;1.55;0.40;;;;;;;;;;5101088;28;20032;-86
2023/01/13 15:35:21;;;;;;;0.60;0.50;;;;;;;;;;5101422;28;20064;-86
2023/01/13 15:37:48;;;;;;;0.60;0.50;;;;;;;;;;5065965;28;20024;-85
2023/01/13 15:40:19;;;;;;;1.05;0.40;;;;;;;;;;5101411;28;20047;-85
2023/01/13 15:48:14;;;;;;;1.00;0.40;;;;;;;;;;5100442;28;20425;-86
2023/01/13 15:50:40;;;;;;;1.73;0.30;;;;;;;;;;5087333;28;20503;-84
2023/01/13 15:53:05;;;;;;;0.30;0.30;;;;;;;;;;5109601;28;20028;-85
2023/01/13 15:55:36;;;;;;;0.50;0.40;;;;;;;;;;5092398;28;20040;-86
2023/01/13 15:58:02;;;;;;;0.47;0.47;;;;;;;;;;5107861;28;20040;-88
2023/01/13 16:00:28;;;;;;;0.65;0.40;;;;;;;;;;5108107;28;20055;-86
2023/01/13 16:02:53;;;;;;;0.43;0.38;;;;;;;;;;5090491;28;20042;-86
2023/01/13 16:05:19;;;;;;;0.95;0.40;;;;;;;;;;5105488;28;20043;-85
2023/01/13 16:07:44;;;;;;;3.25;0.90;;;;;;;;;;5100004;28;20059;-86
2023/01/13 16:10:17;;;;;;;0.82;0.40;;;;;;;;;;5067538;28;20028;-87
2023/01/13 16:12:42;;;;;;;1.40;0.75;;;;;;;;;;5105144;28;20028;-87